PRIVATE WETTERSTATION BILLIGHEIM-ALLFELD                       ZURCK
Wetterdaten: Sonntag, 15.10.2017
Datum Zeit Temp. A. Temp. A. min Temp. A. max Feuchte A. Luftdruck Regen Wind Richtung Richtung Sonnenschein ET Solar Taupunkt Windchill Windben Empfang
15.10.2017 00:00 10,3 C 10,3 C 10,3 C 89 % 1026,8 hPa 0,0 l/m 0,0 km/h (0 Bft) O-NO 59 0 min 0,000 mm 0 W/m 8,6 C 10,3 C 0,0 km/h (0 Bft) 100 %
15.10.2017 00:10 10,1 C 10,1 C 10,3 C 89 % 1026,8 hPa 0,0 l/m 0,0 km/h (0 Bft) O-NO 59 0 min 1,473 mm 0 W/m 8,4 C 10,1 C 0,0 km/h (0 Bft) 100 %
15.10.2017 00:20 10,1 C 10,1 C 10,1 C 90 % 1026,8 hPa 0,0 l/m 0,0 km/h (0 Bft) O-NO 59 0 min 0,000 mm 0 W/m 8,5 C 10,1 C 0,0 km/h (0 Bft) 100 %
15.10.2017 00:30 9,9 C 9,9 C 10,1 C 89 % 1026,8 hPa 0,0 l/m 0,0 km/h (0 Bft) O-NO 59 0 min 0,000 mm 0 W/m 8,2 C 9,9 C 0,0 km/h (0 Bft) 100 %
15.10.2017 00:40 9,9 C 9,9 C 9,9 C 89 % 1026,7 hPa 0,0 l/m 0,0 km/h (0 Bft) O-NO 59 0 min 0,000 mm 0 W/m 8,2 C 9,9 C 0,0 km/h (0 Bft) 100 %
15.10.2017 00:50 9,8 C 9,8 C 9,9 C 90 % 1026,7 hPa 0,0 l/m 0,0 km/h (0 Bft) O-NO 59 0 min 0,000 mm 0 W/m 8,2 C 9,8 C 1,6 km/h (1 Bft) 100 %
15.10.2017 01:00 9,8 C 9,8 C 9,8 C 90 % 1026,7 hPa 0,0 l/m 0,0 km/h (0 Bft) O-NO 59 0 min 0,000 mm 0 W/m 8,2 C 9,8 C 0,0 km/h (0 Bft) 100 %
15.10.2017 01:10 9,7 C 9,7 C 9,8 C 90 % 1026,7 hPa 0,0 l/m 0,0 km/h (0 Bft) O-NO 59 0 min 0,000 mm 0 W/m 8,1 C 9,7 C 0,0 km/h (0 Bft) 100 %
15.10.2017 01:20 9,5 C 9,5 C 9,7 C 90 % 1026,7 hPa 0,0 l/m 0,0 km/h (0 Bft) O-NO 59 0 min 0,000 mm 0 W/m 7,9 C 9,5 C 0,0 km/h (0 Bft) 100 %
15.10.2017 01:30 9,3 C 9,3 C 9,5 C 89 % 1026,7 hPa 0,0 l/m 0,0 km/h (0 Bft) O-NO 59 0 min 0,000 mm 0 W/m 7,6 C 9,3 C 0,0 km/h (0 Bft) 100 %
15.10.2017 01:40 9,2 C 9,2 C 9,3 C 90 % 1026,6 hPa 0,0 l/m 0,0 km/h (0 Bft) O-NO 59 0 min 0,000 mm 0 W/m 7,6 C 9,2 C 0,0 km/h (0 Bft) 99 %
15.10.2017 01:50 9,1 C 9,1 C 9,2 C 90 % 1026,7 hPa 0,0 l/m 0,0 km/h (0 Bft) O-NO 59 0 min 0,000 mm 0 W/m 7,5 C 9,1 C 0,0 km/h (0 Bft) 99 %
15.10.2017 02:00 9,1 C 9,0 C 9,1 C 90 % 1026,7 hPa 0,0 l/m 0,0 km/h (0 Bft) O-NO 59 0 min 0,000 mm 0 W/m 7,5 C 9,1 C 0,0 km/h (0 Bft) 99 %
15.10.2017 02:10 8,9 C 8,9 C 9,1 C 90 % 1026,6 hPa 0,0 l/m 0,0 km/h (0 Bft) O-NO 59 0 min 0,000 mm 0 W/m 7,4 C 8,9 C 0,0 km/h (0 Bft) 99 %
15.10.2017 02:20 8,8 C 8,8 C 8,9 C 90 % 1026,6 hPa 0,0 l/m 0,0 km/h (0 Bft) O-NO 59 0 min 0,000 mm 0 W/m 7,3 C 8,8 C 1,6 km/h (1 Bft) 99 %
15.10.2017 02:30 8,7 C 8,7 C 8,8 C 90 % 1026,5 hPa 0,0 l/m 0,0 km/h (0 Bft) O-NO 59 0 min 0,000 mm 0 W/m 7,2 C 8,7 C 0,0 km/h (0 Bft) 99 %
15.10.2017 02:40 8,6 C 8,6 C 8,7 C 90 % 1026,4 hPa 0,0 l/m 0,0 km/h (0 Bft) O-NO 59 0 min 0,000 mm 0 W/m 7,1 C 8,6 C 0,0 km/h (0 Bft) 100 %
15.10.2017 02:50 8,7 C 8,6 C 8,7 C 90 % 1026,4 hPa 0,0 l/m 0,0 km/h (0 Bft) O-NO 59 0 min 0,000 mm 0 W/m 7,2 C 8,7 C 0,0 km/h (0 Bft) 98 %
15.10.2017 03:00 8,7 C 8,7 C 8,7 C 90 % 1026,4 hPa 0,0 l/m 0,0 km/h (0 Bft) O-NO 59 0 min 0,000 mm 0 W/m 7,2 C 8,7 C 0,0 km/h (0 Bft) 98 %
15.10.2017 03:10 8,6 C 8,6 C 8,7 C 90 % 1026,4 hPa 0,0 l/m 0,1 km/h (0 Bft) O-NO 59 0 min 0,000 mm 0 W/m 7,1 C 8,6 C 1,6 km/h (1 Bft) 100 %
15.10.2017 03:20 8,4 C 8,4 C 8,6 C 90 % 1026,4 hPa 0,0 l/m 0,0 km/h (0 Bft) O-NO 59 0 min 0,000 mm 0 W/m 6,9 C 8,4 C 0,0 km/h (0 Bft) 100 %
15.10.2017 03:30 8,3 C 8,3 C 8,4 C 90 % 1026,3 hPa 0,0 l/m 0,0 km/h (0 Bft) O-NO 59 0 min 0,000 mm 0 W/m 6,8 C 8,3 C 0,0 km/h (0 Bft) 100 %
15.10.2017 03:40 8,3 C 8,3 C 8,3 C 90 % 1026,2 hPa 0,0 l/m 0,0 km/h (0 Bft) O-NO 59 0 min 0,000 mm 0 W/m 6,8 C 8,3 C 0,0 km/h (0 Bft) 99 %
15.10.2017 03:50 8,2 C 8,2 C 8,3 C 90 % 1026,2 hPa 0,0 l/m 0,0 km/h (0 Bft) O-NO 59 0 min 0,000 mm 0 W/m 6,7 C 8,2 C 0,0 km/h (0 Bft) 99 %
15.10.2017 04:00 8,2 C 8,2 C 8,2 C 90 % 1026,1 hPa 0,0 l/m 0,0 km/h (0 Bft) O-NO 59 0 min 0,000 mm 0 W/m 6,7 C 8,2 C 0,0 km/h (0 Bft) 97 %
15.10.2017 04:10 8,2 C 8,2 C 8,2 C 90 % 1026,0 hPa 0,0 l/m 0,0 km/h (0 Bft) O-NO 59 0 min 0,000 mm 0 W/m 6,7 C 8,2 C 0,0 km/h (0 Bft) 97 %
15.10.2017 04:20 8,2 C 8,2 C 8,2 C 90 % 1025,9 hPa 0,0 l/m 0,0 km/h (0 Bft) O-NO 59 0 min 0,000 mm 0 W/m 6,7 C 8,2 C 0,0 km/h (0 Bft) 97 %
15.10.2017 04:30 8,1 C 8,1 C 8,2 C 90 % 1025,9 hPa 0,2 l/m 0,0 km/h (0 Bft) O-NO 59 0 min 0,000 mm 0 W/m 6,6 C 8,1 C 0,0 km/h (0 Bft) 97 %
15.10.2017 04:40 7,9 C 7,9 C 8,1 C 90 % 1025,9 hPa 0,0 l/m 0,2 km/h (0 Bft) O-NO 59 0 min 0,000 mm 0 W/m 6,4 C 7,9 C 1,6 km/h (1 Bft) 97 %
15.10.2017 04:50 7,8 C 7,8 C 7,9 C 90 % 1025,9 hPa 0,0 l/m 0,0 km/h (0 Bft) O-NO 59 0 min 0,000 mm 0 W/m 6,3 C 7,8 C 0,0 km/h (0 Bft) 97 %
15.10.2017 05:00 7,6 C 7,6 C 7,8 C 90 % 1025,9 hPa 0,0 l/m 0,0 km/h (0 Bft) O-NO 59 0 min 0,000 mm 0 W/m 6,1 C 7,6 C 0,0 km/h (0 Bft) 97 %
15.10.2017 05:10 7,6 C 7,6 C 7,6 C 90 % 1025,8 hPa 0,0 l/m 0,0 km/h (0 Bft) O-NO 59 0 min 0,000 mm 0 W/m 6,1 C 7,6 C 0,0 km/h (0 Bft) 97 %
15.10.2017 05:20 7,7 C 7,6 C 7,7 C 90 % 1025,8 hPa 0,0 l/m 0,0 km/h (0 Bft) O-NO 59 0 min 0,000 mm 0 W/m 6,2 C 7,7 C 0,0 km/h (0 Bft) 97 %
15.10.2017 05:30 7,8 C 7,7 C 7,8 C 90 % 1025,7 hPa 0,0 l/m 0,0 km/h (0 Bft) O-NO 59 0 min 0,000 mm 0 W/m 6,3 C 7,8 C 0,0 km/h (0 Bft) 97 %
15.10.2017 05:40 7,9 C 7,8 C 7,9 C 90 % 1025,8 hPa 0,0 l/m 0,0 km/h (0 Bft) O-NO 59 0 min 0,000 mm 0 W/m 6,4 C 7,9 C 0,0 km/h (0 Bft) 97 %
15.10.2017 05:50 8,1 C 7,9 C 8,1 C 90 % 1025,8 hPa 0,0 l/m 0,0 km/h (0 Bft) O-NO 59 0 min 0,000 mm 0 W/m 6,6 C 8,1 C 0,0 km/h (0 Bft) 98 %
15.10.2017 06:00 8,2 C 8,1 C 8,2 C 90 % 1025,8 hPa 0,0 l/m 0,0 km/h (0 Bft) O-NO 59 0 min 0,000 mm 0 W/m 6,7 C 8,2 C 0,0 km/h (0 Bft) 97 %
15.10.2017 06:10 8,3 C 8,2 C 8,3 C 90 % 1025,8 hPa 0,0 l/m 0,0 km/h (0 Bft) O-NO 59 0 min 0,000 mm 0 W/m 6,8 C 8,3 C 0,0 km/h (0 Bft) 98 %
15.10.2017 06:20 8,1 C 8,1 C 8,3 C 90 % 1025,8 hPa 0,0 l/m 0,0 km/h (0 Bft) O-NO 59 0 min 0,000 mm 0 W/m 6,6 C 8,1 C 0,0 km/h (0 Bft) 97 %
15.10.2017 06:30 7,9 C 7,9 C 8,1 C 90 % 1025,9 hPa 0,0 l/m 0,0 km/h (0 Bft) O-NO 59 0 min 0,000 mm 0 W/m 6,4 C 7,9 C 1,6 km/h (1 Bft) 98 %
15.10.2017 06:40 7,7 C 7,7 C 7,9 C 90 % 1025,8 hPa 0,0 l/m 0,0 km/h (0 Bft) O-NO 59 0 min 0,000 mm 0 W/m 6,2 C 7,7 C 0,0 km/h (0 Bft) 89 %
15.10.2017 06:50 7,4 C 7,4 C 7,7 C 90 % 1025,8 hPa 0,0 l/m 0,0 km/h (0 Bft) O-NO 59 0 min 0,000 mm 0 W/m 5,9 C 7,4 C 0,0 km/h (0 Bft) 97 %
15.10.2017 07:00 7,1 C 7,1 C 7,4 C 90 % 1025,8 hPa 0,0 l/m 0,0 km/h (0 Bft) O-NO 59 0 min 0,000 mm 0 W/m 5,6 C 7,1 C 0,0 km/h (0 Bft) 98 %
15.10.2017 07:10 6,8 C 6,8 C 7,1 C 90 % 1025,9 hPa 0,0 l/m 0,0 km/h (0 Bft) O-NO 59 0 min 0,000 mm 0 W/m 5,3 C 6,8 C 0,0 km/h (0 Bft) 97 %
15.10.2017 07:20 6,7 C 6,7 C 6,8 C 90 % 1026,0 hPa 0,0 l/m 0,0 km/h (0 Bft) O-NO 59 0 min 0,000 mm 0 W/m 5,2 C 6,7 C 0,0 km/h (0 Bft) 98 %
15.10.2017 07:30 6,5 C 6,5 C 6,7 C 90 % 1026,0 hPa 0,0 l/m 0,2 km/h (0 Bft) O-NO 59 0 min 0,000 mm 0 W/m 5,0 C 6,5 C 3,2 km/h (1 Bft) 97 %
15.10.2017 07:40 6,4 C 6,4 C 6,5 C 90 % 1026,0 hPa 0,0 l/m 0,0 km/h (0 Bft) O-NO 59 0 min 0,000 mm 0 W/m 4,9 C 6,4 C 0,0 km/h (0 Bft) 97 %
15.10.2017 07:50 6,2 C 6,2 C 6,4 C 90 % 1026,0 hPa 0,0 l/m 0,0 km/h (0 Bft) O-NO 59 0 min 0,000 mm 5 W/m 4,7 C 6,2 C 0,0 km/h (0 Bft) 98 %
15.10.2017 08:00 6,1 C 6,1 C 6,2 C 90 % 1026,0 hPa 0,0 l/m 0,0 km/h (0 Bft) O-NO 59 0 min 0,000 mm 9 W/m 4,6 C 6,1 C 0,0 km/h (0 Bft) 97 %
15.10.2017 08:10 6,2 C 6,1 C 6,2 C 90 % 1026,1 hPa 0,0 l/m 0,0 km/h (0 Bft) O-NO 59 0 min 0,000 mm 12 W/m 4,7 C 6,2 C 0,0 km/h (0 Bft) 98 %
15.10.2017 08:20 6,1 C 6,1 C 6,2 C 90 % 1026,2 hPa 0,0 l/m 0,0 km/h (0 Bft) O-NO 59 0 min 0,000 mm 16 W/m 4,6 C 6,1 C 0,0 km/h (0 Bft) 97 %
15.10.2017 08:30 6,2 C 6,1 C 6,2 C 90 % 1026,2 hPa 0,0 l/m 0,4 km/h (0 Bft) O-NO 59 0 min 0,000 mm 25 W/m 4,7 C 6,2 C 3,2 km/h (1 Bft) 97 %
15.10.2017 08:40 6,3 C 6,2 C 6,3 C 90 % 1026,2 hPa 0,0 l/m 0,0 km/h (0 Bft) O-NO 59 0 min 0,000 mm 25 W/m 4,8 C 6,3 C 0,0 km/h (0 Bft) 97 %
15.10.2017 08:50 6,5 C 6,3 C 6,5 C 91 % 1026,3 hPa 0,0 l/m 0,0 km/h (0 Bft) O-NO 59 0 min 0,000 mm 26 W/m 5,1 C 6,5 C 0,0 km/h (0 Bft) 97 %
15.10.2017 09:00 6,7 C 6,5 C 6,7 C 90 % 1026,4 hPa 0,0 l/m 0,0 km/h (0 Bft) O-NO 59 0 min 0,000 mm 65 W/m 5,2 C 6,7 C 0,0 km/h (0 Bft) 99 %
15.10.2017 09:10 7,3 C 6,7 C 7,3 C 91 % 1026,4 hPa 0,0 l/m 0,0 km/h (0 Bft) O-NO 59 10 min 0,000 mm 163 W/m 5,9 C 7,3 C 1,6 km/h (1 Bft) 100 %
15.10.2017 09:20 8,2 C 7,3 C 8,2 C 91 % 1026,4 hPa 0,0 l/m 0,0 km/h (0 Bft) O-NO 59 10 min 0,000 mm 192 W/m 6,8 C 8,2 C 0,0 km/h (0 Bft) 100 %
15.10.2017 09:30 9,1 C 8,2 C 9,1 C 91 % 1026,5 hPa 0,0 l/m 0,0 km/h (0 Bft) O-NO 58 10 min 0,000 mm 213 W/m 7,7 C 9,1 C 0,0 km/h (0 Bft) 99 %
15.10.2017 09:40 9,6 C 9,1 C 9,6 C 91 % 1026,6 hPa 0,0 l/m 0,0 km/h (0 Bft) NO 42 10 min 0,000 mm 239 W/m 8,2 C 9,6 C 1,6 km/h (1 Bft) 100 %
15.10.2017 09:50 10,2 C 9,6 C 10,2 C 91 % 1026,6 hPa 0,0 l/m 0,0 km/h (0 Bft) NO 41 10 min 0,000 mm 260 W/m 8,8 C 10,2 C 0,0 km/h (0 Bft) 100 %
15.10.2017 10:00 10,8 C 10,2 C 10,8 C 91 % 1026,6 hPa 0,0 l/m 0,1 km/h (0 Bft) N-NO 30 10 min 0,102 mm 279 W/m 9,4 C 10,8 C 4,8 km/h (1 Bft) 97 %
15.10.2017 10:10 11,6 C 10,8 C 11,6 C 91 % 1026,7 hPa 0,0 l/m 0,0 km/h (0 Bft) N-NO 30 10 min 0,000 mm 306 W/m 10,2 C 11,6 C 0,0 km/h (0 Bft) 98 %
15.10.2017 10:20 12,7 C 11,6 C 12,7 C 91 % 1026,7 hPa 0,0 l/m 0,0 km/h (0 Bft) N-NO 30 10 min 0,000 mm 323 W/m 11,3 C 12,7 C 1,6 km/h (1 Bft) 97 %
15.10.2017 10:30 13,6 C 12,7 C 13,6 C 91 % 1026,7 hPa 0,0 l/m 0,0 km/h (0 Bft) N-NO 30 10 min 0,000 mm 345 W/m 12,2 C 13,6 C 0,0 km/h (0 Bft) 98 %
15.10.2017 10:40 14,2 C 13,6 C 14,2 C 90 % 1026,7 hPa 0,0 l/m 0,0 km/h (0 Bft) N-NO 30 10 min 0,000 mm 366 W/m 12,6 C 14,2 C 0,0 km/h (0 Bft) 97 %
15.10.2017 10:50 14,9 C 14,2 C 14,9 C 90 % 1026,6 hPa 0,0 l/m 0,0 km/h (0 Bft) N-NO 30 10 min 0,000 mm 387 W/m 13,3 C 14,9 C 0,0 km/h (0 Bft) 98 %
15.10.2017 11:00 15,8 C 14,9 C 15,8 C 89 % 1026,7 hPa 0,0 l/m 0,0 km/h (0 Bft) N-NO 30 10 min 0,178 mm 406 W/m 14,0 C 15,8 C 1,6 km/h (1 Bft) 97 %
15.10.2017 11:10 16,2 C 15,8 C 16,2 C 88 % 1026,7 hPa 0,0 l/m 0,0 km/h (0 Bft) N-NO 30 10 min 0,000 mm 424 W/m 14,2 C 16,2 C 0,0 km/h (0 Bft) 98 %
15.10.2017 11:20 16,7 C 16,2 C 16,7 C 84 % 1026,7 hPa 0,0 l/m 0,0 km/h (0 Bft) N-NO 30 10 min 0,000 mm 443 W/m 14,0 C 16,7 C 1,6 km/h (1 Bft) 89 %
15.10.2017 11:30 17,2 C 16,6 C 17,2 C 84 % 1026,5 hPa 0,0 l/m 0,0 km/h (0 Bft) N-NO 30 10 min 0,000 mm 459 W/m 14,5 C 17,2 C 1,6 km/h (1 Bft) 97 %
15.10.2017 11:40 17,9 C 17,2 C 17,9 C 82 % 1026,5 hPa 0,0 l/m 0,0 km/h (0 Bft) N-NO 30 10 min 0,000 mm 476 W/m 14,8 C 17,9 C 1,6 km/h (1 Bft) 96 %
15.10.2017 11:50 18,3 C 17,9 C 18,3 C 81 % 1026,4 hPa 0,0 l/m 0,5 km/h (0 Bft) SO 144 10 min 0,000 mm 490 W/m 15,0 C 18,3 C 6,4 km/h (2 Bft) 98 %
15.10.2017 12:00 18,5 C 18,3 C 18,5 C 79 % 1026,4 hPa 0,0 l/m 1,9 km/h (1 Bft) S-SW 210 10 min 0,254 mm 503 W/m 14,8 C 18,5 C 6,4 km/h (2 Bft) 97 %
15.10.2017 12:10 18,4 C 18,4 C 18,6 C 77 % 1026,4 hPa 0,0 l/m 2,9 km/h (1 Bft) S-SW 192 10 min 0,000 mm 362 W/m 14,3 C 18,4 C 9,7 km/h (2 Bft) 97 %
15.10.2017 12:20 18,2 C 18,1 C 18,4 C 78 % 1026,3 hPa 0,0 l/m 2,2 km/h (1 Bft) S 188 10 min 0,000 mm 519 W/m 14,3 C 18,2 C 6,4 km/h (2 Bft) 97 %
15.10.2017 12:30 18,3 C 18,2 C 18,3 C 78 % 1026,3 hPa 0,0 l/m 3,9 km/h (1 Bft) S-SW 196 10 min 0,000 mm 527 W/m 14,4 C 18,3 C 9,7 km/h (2 Bft) 97 %
15.10.2017 12:40 18,4 C 18,3 C 18,4 C 78 % 1026,2 hPa 0,0 l/m 2,7 km/h (1 Bft) S-SW 213 10 min 0,000 mm 531 W/m 14,5 C 18,4 C 6,4 km/h (2 Bft) 97 %
15.10.2017 12:50 18,4 C 18,3 C 18,4 C 77 % 1026,0 hPa 0,0 l/m 2,7 km/h (1 Bft) S-SW 209 10 min 0,000 mm 536 W/m 14,3 C 18,4 C 8,0 km/h (2 Bft) 98 %
15.10.2017 13:00 18,4 C 18,3 C 18,4 C 77 % 1026,0 hPa 0,0 l/m 0,8 km/h (0 Bft) S-SW 207 10 min 0,279 mm 536 W/m 14,3 C 18,4 C 4,8 km/h (1 Bft) 97 %
15.10.2017 13:10 18,4 C 18,4 C 18,4 C 74 % 1025,8 hPa 0,0 l/m 0,7 km/h (0 Bft) S-SW 198 10 min 0,000 mm 529 W/m 13,7 C 18,4 C 4,8 km/h (1 Bft) 97 %
15.10.2017 13:20 18,6 C 18,4 C 18,6 C 76 % 1025,8 hPa 0,0 l/m 3,4 km/h (1 Bft) S-SW 204 10 min 0,000 mm 176 W/m 14,3 C 18,6 C 11,3 km/h (2 Bft) 97 %
15.10.2017 13:30 18,7 C 18,6 C 18,8 C 75 % 1025,7 hPa 0,0 l/m 1,9 km/h (1 Bft) S 186 0 min 0,000 mm 63 W/m 14,2 C 18,7 C 8,0 km/h (2 Bft) 97 %
15.10.2017 13:40 18,8 C 18,7 C 18,8 C 75 % 1025,6 hPa 0,0 l/m 1,6 km/h (1 Bft) S 181 10 min 0,000 mm 248 W/m 14,3 C 18,8 C 8,0 km/h (2 Bft) 97 %
15.10.2017 13:50 18,8 C 18,7 C 18,8 C 76 % 1025,5 hPa 0,0 l/m 0,3 km/h (0 Bft) S-SW 194 10 min 0,000 mm 524 W/m 14,5 C 18,8 C 4,8 km/h (1 Bft) 97 %
15.10.2017 14:00 19,1 C 18,8 C 19,1 C 74 % 1025,4 hPa 0,0 l/m 0,4 km/h (0 Bft) S-SW 195 10 min 0,178 mm 469 W/m 14,4 C 19,1 C 4,8 km/h (1 Bft) 97 %
15.10.2017 14:10 19,2 C 19,1 C 19,2 C 74 % 1025,3 hPa 0,0 l/m 0,0 km/h (0 Bft) S-SW 204 10 min 0,000 mm 385 W/m 14,4 C 19,2 C 1,6 km/h (1 Bft) 97 %
15.10.2017 14:20 19,3 C 19,2 C 19,3 C 74 % 1025,2 hPa 0,0 l/m 1,2 km/h (1 Bft) W-SW 242 10 min 0,000 mm 499 W/m 14,5 C 19,3 C 6,4 km/h (2 Bft) 97 %
15.10.2017 14:30 19,6 C 19,3 C 19,6 C 74 % 1025,1 hPa 0,0 l/m 0,3 km/h (0 Bft) W-SW 243 10 min 0,000 mm 487 W/m 14,8 C 19,6 C 4,8 km/h (1 Bft) 98 %
15.10.2017 14:40 19,8 C 19,6 C 19,8 C 75 % 1025,1 hPa 0,0 l/m 0,0 km/h (0 Bft) W-SW 242 0 min 0,000 mm 113 W/m 15,2 C 19,8 C 1,6 km/h (1 Bft) 97 %
15.10.2017 14:50 20,0 C 19,8 C 20,0 C 72 % 1024,9 hPa 0,0 l/m 0,7 km/h (0 Bft) SW 215 0 min 0,000 mm 90 W/m 14,8 C 20,0 C 6,4 km/h (2 Bft) 98 %
15.10.2017 15:00 20,2 C 20,0 C 20,2 C 74 % 1024,8 hPa 0,0 l/m 0,1 km/h (0 Bft) S-SW 213 0 min 0,178 mm 111 W/m 15,4 C 20,2 C 4,8 km/h (1 Bft) 96 %
15.10.2017 15:10 20,2 C 20,2 C 20,3 C 71 % 1024,8 hPa 0,0 l/m 0,0 km/h (0 Bft) S-SW 212 10 min 0,000 mm 355 W/m 14,8 C 20,2 C 0,0 km/h (0 Bft) 97 %
15.10.2017 15:20 20,3 C 20,2 C 20,3 C 72 % 1024,7 hPa 0,0 l/m 0,2 km/h (0 Bft) S-SW 212 10 min 0,000 mm 415 W/m 15,1 C 20,3 C 6,4 km/h (2 Bft) 98 %
15.10.2017 15:30 20,4 C 20,3 C 20,4 C 71 % 1024,7 hPa 0,0 l/m 0,0 km/h (0 Bft) S-SW 207 10 min 0,000 mm 397 W/m 15,0 C 20,4 C 0,0 km/h (0 Bft) 97 %
15.10.2017 15:40 20,4 C 20,4 C 20,5 C 70 % 1024,6 hPa 0,0 l/m 0,0 km/h (0 Bft) S-SW 205 10 min 0,000 mm 325 W/m 14,7 C 20,4 C 1,6 km/h (1 Bft) 97 %
15.10.2017 15:50 20,3 C 20,3 C 20,4 C 71 % 1024,4 hPa 0,0 l/m 0,0 km/h (0 Bft) S-SW 202 0 min 0,000 mm 47 W/m 14,9 C 20,3 C 1,6 km/h (1 Bft) 97 %
15.10.2017 16:00 20,4 C 20,3 C 20,4 C 71 % 1024,3 hPa 0,0 l/m 0,5 km/h (0 Bft) S-SW 202 0 min 0,152 mm 46 W/m 15,0 C 20,4 C 8,0 km/h (2 Bft) 97 %
15.10.2017 16:10 20,3 C 20,3 C 20,4 C 68 % 1024,2 hPa 0,0 l/m 0,2 km/h (0 Bft) S-SW 209 0 min 0,000 mm 44 W/m 14,2 C 20,3 C 4,8 km/h (1 Bft) 97 %
15.10.2017 16:20 20,4 C 20,3 C 20,4 C 70 % 1024,1 hPa 0,0 l/m 0,2 km/h (0 Bft) S-SW 208 0 min 0,000 mm 42 W/m 14,7 C 20,4 C 4,8 km/h (1 Bft) 97 %
15.10.2017 16:30 20,3 C 20,3 C 20,4 C 70 % 1024,0 hPa 0,0 l/m 0,0 km/h (0 Bft) S-SW 206 0 min 0,000 mm 40 W/m 14,6 C 20,3 C 1,6 km/h (1 Bft) 94 %
15.10.2017 16:40 20,3 C 20,3 C 20,3 C 70 % 1024,0 hPa 0,0 l/m 0,3 km/h (0 Bft) S-SW 201 0 min 0,000 mm 39 W/m 14,6 C 20,3 C 6,4 km/h (2 Bft) 96 %
15.10.2017 16:50 20,2 C 20,2 C 20,3 C 72 % 1024,0 hPa 0,0 l/m 0,0 km/h (0 Bft) S-SW 203 0 min 0,000 mm 37 W/m 15,0 C 20,2 C 1,6 km/h (1 Bft) 97 %
15.10.2017 17:00 20,1 C 20,1 C 20,2 C 71 % 1024,0 hPa 0,0 l/m 0,0 km/h (0 Bft) S-SW 202 0 min 0,025 mm 35 W/m 14,7 C 20,1 C 1,6 km/h (1 Bft) 97 %
15.10.2017 17:10 20,0 C 20,0 C 20,1 C 69 % 1023,9 hPa 0,0 l/m 0,0 km/h (0 Bft) S-SW 202 0 min 0,000 mm 33 W/m 14,1 C 20,0 C 1,6 km/h (1 Bft) 97 %
15.10.2017 17:20 19,9 C 19,9 C 20,0 C 71 % 1023,9 hPa 0,0 l/m 0,0 km/h (0 Bft) S-SW 202 0 min 0,000 mm 32 W/m 14,5 C 19,9 C 0,0 km/h (0 Bft) 97 %
15.10.2017 17:30 19,8 C 19,8 C 19,9 C 70 % 1023,8 hPa 0,0 l/m 0,0 km/h (0 Bft) S-SW 202 0 min 0,000 mm 28 W/m 14,2 C 19,8 C 0,0 km/h (0 Bft) 98 %
15.10.2017 17:40 19,6 C 19,6 C 19,8 C 72 % 1023,7 hPa 0,0 l/m 0,0 km/h (0 Bft) S-SW 202 0 min 0,000 mm 26 W/m 14,4 C 19,6 C 0,0 km/h (0 Bft) 97 %
15.10.2017 17:50 19,4 C 19,4 C 19,6 C 72 % 1023,7 hPa 0,0 l/m 0,0 km/h (0 Bft) S-SW 202 0 min 0,000 mm 23 W/m 14,2 C 19,4 C 0,0 km/h (0 Bft) 97 %
15.10.2017 18:00 19,1 C 19,1 C 19,4 C 72 % 1023,6 hPa 0,0 l/m 0,0 km/h (0 Bft) S-SW 202 0 min 0,026 mm 19 W/m 13,9 C 19,1 C 0,0 km/h (0 Bft) 90 %
15.10.2017 18:10 18,7 C 18,7 C 19,1 C 74 % 1023,7 hPa 0,0 l/m 0,0 km/h (0 Bft) S-SW 202 0 min 0,000 mm 14 W/m 14,0 C 18,7 C 0,0 km/h (0 Bft) 97 %
15.10.2017 18:20 18,3 C 18,3 C 18,7 C 76 % 1023,7 hPa 0,0 l/m 0,0 km/h (0 Bft) S-SW 202 0 min 0,000 mm 9 W/m 14,0 C 18,3 C 0,0 km/h (0 Bft) 97 %
15.10.2017 18:30 17,9 C 17,9 C 18,3 C 77 % 1023,7 hPa 0,0 l/m 0,0 km/h (0 Bft) S-SW 202 0 min 0,000 mm 0 W/m 13,8 C 17,9 C 0,0 km/h (0 Bft) 98 %
15.10.2017 18:40 17,4 C 17,4 C 17,9 C 79 % 1023,7 hPa 0,0 l/m 0,0 km/h (0 Bft) S-SW 202 0 min 0,000 mm 0 W/m 13,7 C 17,4 C 0,0 km/h (0 Bft) 97 %
15.10.2017 18:50 17,0 C 17,0 C 17,4 C 79 % 1023,5 hPa 0,0 l/m 0,0 km/h (0 Bft) S-SW 202 0 min 0,000 mm 0 W/m 13,3 C 17,0 C 0,0 km/h (0 Bft) 97 %
15.10.2017 19:00 16,7 C 16,7 C 17,0 C 80 % 1023,6 hPa 0,0 l/m 0,0 km/h (0 Bft) S-SW 202 0 min 0,000 mm 0 W/m 13,2 C 16,7 C 0,0 km/h (0 Bft) 96 %
15.10.2017 19:10 16,3 C 16,3 C 16,7 C 81 % 1023,8 hPa 0,0 l/m 0,0 km/h (0 Bft) S-SW 202 0 min 0,000 mm 0 W/m 13,0 C 16,3 C 0,0 km/h (0 Bft) 97 %
15.10.2017 19:20 15,8 C 15,8 C 16,3 C 82 % 1023,8 hPa 0,0 l/m 0,0 km/h (0 Bft) S-SW 202 0 min 0,000 mm 0 W/m 12,7 C 15,8 C 0,0 km/h (0 Bft) 98 %
15.10.2017 19:30 15,3 C 15,3 C 15,8 C 84 % 1023,9 hPa 0,0 l/m 0,0 km/h (0 Bft) S-SW 202 0 min 0,000 mm 0 W/m 12,6 C 15,3 C 0,0 km/h (0 Bft) 96 %
15.10.2017 19:40 15,1 C 15,1 C 15,3 C 85 % 1024,0 hPa 0,0 l/m 0,0 km/h (0 Bft) S-SW 202 0 min 0,000 mm 0 W/m 12,6 C 15,1 C 0,0 km/h (0 Bft) 97 %
15.10.2017 19:50 14,6 C 14,6 C 15,1 C 86 % 1024,0 hPa 0,0 l/m 0,0 km/h (0 Bft) S-SW 202 0 min 0,000 mm 0 W/m 12,3 C 14,6 C 0,0 km/h (0 Bft) 98 %
15.10.2017 20:00 14,3 C 14,3 C 14,6 C 86 % 1024,0 hPa 0,0 l/m 0,0 km/h (0 Bft) S-SW 202 0 min 0,025 mm 0 W/m 12,0 C 14,3 C 0,0 km/h (0 Bft) 96 %
15.10.2017 20:10 13,9 C 13,9 C 14,3 C 86 % 1024,0 hPa 0,0 l/m 0,0 km/h (0 Bft) S-SW 202 0 min 0,000 mm 0 W/m 11,6 C 13,9 C 0,0 km/h (0 Bft) 97 %
15.10.2017 20:20 13,7 C 13,7 C 13,9 C 87 % 1023,8 hPa 0,0 l/m 0,0 km/h (0 Bft) S-SW 202 0 min 0,000 mm 0 W/m 11,6 C 13,7 C 0,0 km/h (0 Bft) 98 %
15.10.2017 20:30 13,5 C 13,5 C 13,7 C 88 % 1023,9 hPa 0,0 l/m 0,0 km/h (0 Bft) S-SW 202 0 min 0,000 mm 0 W/m 11,6 C 13,5 C 0,0 km/h (0 Bft) 97 %
15.10.2017 20:40 13,2 C 13,2 C 13,5 C 88 % 1023,9 hPa 0,0 l/m 0,0 km/h (0 Bft) S-SW 202 0 min 0,000 mm 0 W/m 11,3 C 13,2 C 0,0 km/h (0 Bft) 98 %
15.10.2017 20:50 12,9 C 12,9 C 13,2 C 88 % 1023,9 hPa 0,0 l/m 0,0 km/h (0 Bft) S-SW 202 0 min 0,000 mm 0 W/m 11,0 C 12,9 C 0,0 km/h (0 Bft) 98 %
15.10.2017 21:00 12,7 C 12,7 C 12,9 C 89 % 1023,9 hPa 0,0 l/m 0,0 km/h (0 Bft) S-SW 202 0 min 0,000 mm 0 W/m 10,9 C 12,7 C 0,0 km/h (0 Bft) 97 %
15.10.2017 21:10 12,4 C 12,4 C 12,7 C 89 % 1023,8 hPa 0,0 l/m 0,0 km/h (0 Bft) S-SW 202 0 min 0,000 mm 0 W/m 10,6 C 12,4 C 0,0 km/h (0 Bft) 97 %
15.10.2017 21:20 12,2 C 12,2 C 12,4 C 89 % 1023,9 hPa 0,0 l/m 0,0 km/h (0 Bft) S-SW 202 0 min 0,000 mm 0 W/m 10,4 C 12,2 C 1,6 km/h (1 Bft) 97 %
15.10.2017 21:30 11,9 C 11,9 C 12,2 C 89 % 1024,0 hPa 0,0 l/m 0,9 km/h (0 Bft) W-SW 246 0 min 0,000 mm 0 W/m 10,1 C 11,9 C 4,8 km/h (1 Bft) 97 %
15.10.2017 21:40 11,7 C 11,6 C 11,9 C 89 % 1024,0 hPa 0,0 l/m 0,6 km/h (0 Bft) W-SW 249 0 min 0,000 mm 0 W/m 9,9 C 11,7 C 3,2 km/h (1 Bft) 97 %
15.10.2017 21:50 11,4 C 11,4 C 11,7 C 89 % 1024,1 hPa 0,0 l/m 0,0 km/h (0 Bft) W-SW 250 0 min 0,000 mm 0 W/m 9,7 C 11,4 C 1,6 km/h (1 Bft) 97 %
15.10.2017 22:00 11,2 C 11,2 C 11,4 C 89 % 1024,1 hPa 0,0 l/m 0,0 km/h (0 Bft) W-SW 250 0 min 0,000 mm 0 W/m 9,5 C 11,2 C 0,0 km/h (0 Bft) 97 %
15.10.2017 22:10 11,2 C 11,1 C 11,2 C 89 % 1024,1 hPa 0,0 l/m 0,0 km/h (0 Bft) W-SW 250 0 min 0,000 mm 0 W/m 9,5 C 11,2 C 0,0 km/h (0 Bft) 97 %
15.10.2017 22:20 11,1 C 11,1 C 11,2 C 89 % 1024,2 hPa 0,0 l/m 0,0 km/h (0 Bft) W-SW 250 0 min 0,000 mm 0 W/m 9,4 C 11,1 C 0,0 km/h (0 Bft) 89 %
15.10.2017 22:30 11,0 C 11,0 C 11,1 C 89 % 1024,1 hPa 0,0 l/m 0,0 km/h (0 Bft) W-SW 250 0 min 0,000 mm 0 W/m 9,3 C 11,0 C 0,0 km/h (0 Bft) 98 %
15.10.2017 22:40 10,8 C 10,8 C 11,0 C 89 % 1024,2 hPa 0,0 l/m 0,0 km/h (0 Bft) W-SW 250 0 min 0,000 mm 0 W/m 9,1 C 10,8 C 0,0 km/h (0 Bft) 97 %
15.10.2017 22:50 10,7 C 10,7 C 10,9 C 89 % 1024,3 hPa 0,0 l/m 0,0 km/h (0 Bft) W-SW 250 0 min 0,000 mm 0 W/m 9,0 C 10,7 C 0,0 km/h (0 Bft) 99 %
15.10.2017 23:00 10,6 C 10,6 C 10,7 C 89 % 1024,2 hPa 0,0 l/m 0,0 km/h (0 Bft) W-SW 250 0 min 0,000 mm 0 W/m 8,9 C 10,6 C 0,0 km/h (0 Bft) 99 %
15.10.2017 23:10 10,6 C 10,6 C 10,6 C 89 % 1024,4 hPa 0,0 l/m 0,0 km/h (0 Bft) W-SW 250 0 min 0,000 mm 0 W/m 8,9 C 10,6 C 0,0 km/h (0 Bft) 100 %
15.10.2017 23:20 10,6 C 10,6 C 10,6 C 89 % 1024,4 hPa 0,0 l/m 0,1 km/h (0 Bft) W-SW 250 0 min 0,000 mm 0 W/m 8,9 C 10,6 C 1,6 km/h (1 Bft) 100 %
15.10.2017 23:30 10,4 C 10,4 C 10,6 C 89 % 1024,4 hPa 0,0 l/m 0,0 km/h (0 Bft) W-SW 250 0 min 0,000 mm 0 W/m 8,7 C 10,4 C 0,0 km/h (0 Bft) 100 %
15.10.2017 23:40 10,3 C 10,3 C 10,4 C 89 % 1024,6 hPa 0,0 l/m 1,0 km/h (0 Bft) W-NW 293 0 min 0,000 mm 0 W/m 8,6 C 10,3 C 4,8 km/h (1 Bft) 100 %
15.10.2017 23:50 10,7 C 10,3 C 10,7 C 89 % 1024,6 hPa 0,0 l/m 0,6 km/h (0 Bft) NW 307 0 min 0,000 mm 0 W/m 9,0 C 10,7 C 4,8 km/h (1 Bft) 100 %
_ Min-Zeit 08:00 08:00 08:00 16:10 18:50 - 00:00 - - - - - 08:00 08:00 00:00 06:40
Minimum _ 6,1 C 6,1 C 6,2 C 68 % 1023,5 hPa - 0,0 km/h (0 Bft) - - - - - 4,6 C 6,1 C 0,0 km/h (0 Bft) 89 %
_ Max-Zeit 15:40 15:40 15:40 08:50 00:00 04:30 12:30 - - 09:10 00:10 12:50 15:00 15:30 13:20 00:00
Maximum _ 20,5 C 20,4 C 20,5 C 91 % 1026,8 hPa 0,2 l/m 3,9 km/h
S-SW (1 Bft)
- - 10 min 1,473 mm 536 W/m 15,4 C 20,4 C 11,3 km/h
S-SW (2 Bft)
100 %
Durchschnitt _ 12,9 C 12,8 C 13,0 C 85 % 1025,4 hPa #0,2 l/m 0,2 km/h (0 Bft) S-SW - #6:00 h #2,870 mm 237 W/m 10,3 C 12,9 C 1,5 km/h (1 Bft) 98 %
PRIVATE WETTERSTATION BILLIGHEIM-ALLFELD - www.neckar-odenwald-wetter.de - Holger Sonntag